Time;durP1;ratioP1;P1;durP2;ratioP2;P2;SDS_P1;SDS_P2;PMS_P1;PMS_P2;Temp;Humidity;BMP_temperature;BMP_pressure;BME280_temperature;BME280_humidity;BME280_pressure;Samples;Min_cycle;Max_cycle;Signal;HPM_P1;HPM_P2
2021/08/02 00:01:53;;;;;;;22.23;3.78;;;;;;;;;;5015050;28;20030;-43
2021/08/02 00:04:23;;;;;;;16.05;3.50;;;;;;;;;;5015618;28;20054;-42
2021/08/02 00:06:51;;;;;;;18.85;3.05;;;;;;;;;;5017624;28;20383;-43
2021/08/02 00:09:22;;;;;;;21.08;3.92;;;;;;;;;;4999411;28;20025;-45
2021/08/02 00:12:04;;;;;;;20.13;3.28;;;;;;;;;;5016135;28;20103;-46
2021/08/02 00:14:31;;;;;;;25.35;3.63;;;;;;;;;;5005612;28;20036;-46
2021/08/02 00:16:58;;;;;;;17.52;2.88;;;;;;;;;;5015790;28;20030;-46
2021/08/02 00:19:26;;;;;;;17.90;2.90;;;;;;;;;;5013729;28;20026;-45
2021/08/02 00:21:53;;;;;;;18.35;3.28;;;;;;;;;;5015508;28;20101;-46
2021/08/02 00:24:20;;;;;;;24.50;3.40;;;;;;;;;;5012612;28;20385;-42
2021/08/02 00:26:48;;;;;;;23.23;3.40;;;;;;;;;;5014814;28;20028;-42
2021/08/02 00:29:16;;;;;;;21.35;3.38;;;;;;;;;;5014685;28;20029;-42
2021/08/02 00:31:44;;;;;;;20.55;3.40;;;;;;;;;;5014910;28;20381;-46
2021/08/02 00:34:11;;;;;;;22.60;3.72;;;;;;;;;;5012934;28;20069;-47
2021/08/02 00:36:59;;;;;;;19.77;3.45;;;;;;;;;;5012717;28;20042;-40
2021/08/02 00:39:44;;;;;;;22.67;3.97;;;;;;;;;;5015046;28;20049;-44
2021/08/02 00:42:29;;;;;;;19.10;2.80;;;;;;;;;;5015705;28;20478;-39
2021/08/02 00:45:02;;;;;;;14.57;3.47;;;;;;;;;;5013554;28;20026;-45
2021/08/02 00:47:33;;;;;;;19.17;3.20;;;;;;;;;;5014707;28;20022;-46
2021/08/02 00:50:18;;;;;;;19.00;2.90;;;;;;;;;;5013865;28;20033;-40
2021/08/02 00:52:52;;;;;;;21.02;3.33;;;;;;;;;;5013501;28;20060;-40
2021/08/02 00:55:20;;;;;;;26.77;3.80;;;;;;;;;;5012817;28;20069;-42
2021/08/02 00:57:48;;;;;;;17.38;4.10;;;;;;;;;;5024101;28;20025;-42
2021/08/02 01:00:16;;;;;;;21.30;5.82;;;;;;;;;;5023417;28;20023;-44
2021/08/02 01:02:48;;;;;;;23.25;5.88;;;;;;;;;;5020919;28;20501;-41
2021/08/02 01:05:16;;;;;;;22.13;6.73;;;;;;;;;;5032495;28;20017;-43
2021/08/02 01:08:04;;;;;;;33.85;6.78;;;;;;;;;;5026252;28;20033;-42
2021/08/02 01:10:32;;;;;;;28.67;6.70;;;;;;;;;;5021428;28;20033;-42
2021/08/02 01:13:01;;;;;;;25.35;6.20;;;;;;;;;;5027568;28;20044;-42
2021/08/02 01:15:30;;;;;;;27.08;6.60;;;;;;;;;;5022298;28;20037;-44
2021/08/02 01:17:58;;;;;;;31.80;5.90;;;;;;;;;;5013261;28;20033;-42
2021/08/02 01:20:42;;;;;;;28.08;5.57;;;;;;;;;;5013705;28;20046;-44
2021/08/02 01:23:12;;;;;;;25.33;5.75;;;;;;;;;;5012928;28;20022;-45
2021/08/02 01:25:42;;;;;;;23.50;5.82;;;;;;;;;;5018160;28;20026;-42
2021/08/02 01:28:17;;;;;;;26.17;5.82;;;;;;;;;;5013119;28;20101;-44
2021/08/02 01:30:51;;;;;;;25.00;5.90;;;;;;;;;;5014476;28;20023;-44
2021/08/02 01:33:31;;;;;;;22.30;5.60;;;;;;;;;;5013555;28;20033;-42
2021/08/02 01:36:02;;;;;;;22.40;5.05;;;;;;;;;;5012258;28;20034;-42
2021/08/02 01:38:33;;;;;;;26.45;5.43;;;;;;;;;;5013361;28;20025;-42
2021/08/02 01:41:05;;;;;;;28.17;5.65;;;;;;;;;;5016309;28;20026;-44
2021/08/02 01:43:32;;;;;;;27.30;4.53;;;;;;;;;;5013103;28;20045;-43
2021/08/02 01:46:16;;;;;;;28.33;5.30;;;;;;;;;;5016766;28;20044;-42
2021/08/02 01:49:04;;;;;;;31.58;5.00;;;;;;;;;;5012065;28;20014;-42
2021/08/02 01:51:42;;;;;;;34.72;5.25;;;;;;;;;;5015111;28;20045;-42
2021/08/02 01:54:30;;;;;;;17.98;5.05;;;;;;;;;;5013078;28;20033;-46
2021/08/02 01:57:08;;;;;;;43.92;5.13;;;;;;;;;;5012416;28;20083;-42
2021/08/02 01:59:45;;;;;;;21.48;4.63;;;;;;;;;;5012558;28;20041;-42
2021/08/02 02:02:19;;;;;;;21.98;4.55;;;;;;;;;;5012088;28;20766;-42
2021/08/02 02:04:53;;;;;;;20.52;4.85;;;;;;;;;;5013893;28;20080;-41
2021/08/02 02:07:25;;;;;;;30.38;4.07;;;;;;;;;;5012958;28;20021;-44
2021/08/02 02:09:59;;;;;;;27.90;3.97;;;;;;;;;;5018006;28;20017;-42
2021/08/02 02:12:29;;;;;;;18.27;4.45;;;;;;;;;;5028292;28;20521;-41
2021/08/02 02:15:02;;;;;;;23.75;4.40;;;;;;;;;;5028110;28;20141;-42
2021/08/02 02:17:37;;;;;;;20.13;4.50;;;;;;;;;;5031993;28;20112;-43
2021/08/02 02:20:09;;;;;;;30.00;5.13;;;;;;;;;;5027227;28;20724;-42
2021/08/02 02:22:41;;;;;;;22.95;4.78;;;;;;;;;;5031355;28;20377;-43
2021/08/02 02:25:13;;;;;;;19.90;3.63;;;;;;;;;;5031931;28;20071;-42
2021/08/02 02:27:44;;;;;;;21.15;3.30;;;;;;;;;;5028595;28;20037;-42
2021/08/02 02:30:13;;;;;;;17.60;3.70;;;;;;;;;;5031760;28;20025;-41
2021/08/02 02:32:44;;;;;;;22.50;4.10;;;;;;;;;;5031303;28;20010;-42
2021/08/02 02:35:14;;;;;;;16.75;3.28;;;;;;;;;;5031548;28;20428;-42
2021/08/02 02:37:45;;;;;;;19.42;3.83;;;;;;;;;;5028736;28;20086;-42
2021/08/02 02:40:14;;;;;;;18.33;3.70;;;;;;;;;;5031583;28;20079;-42
2021/08/02 02:42:43;;;;;;;14.02;3.10;;;;;;;;;;5028673;28;20385;-42
2021/08/02 02:45:11;;;;;;;14.93;3.80;;;;;;;;;;5031037;28;20026;-41
2021/08/02 02:47:39;;;;;;;14.82;3.65;;;;;;;;;;5027898;28;20025;-42
2021/08/02 02:50:06;;;;;;;14.00;3.22;;;;;;;;;;5029078;28;20040;-42
2021/08/02 02:52:34;;;;;;;15.35;3.35;;;;;;;;;;5030804;28;20426;-42
2021/08/02 02:55:02;;;;;;;15.38;2.78;;;;;;;;;;5031262;28;20037;-42
2021/08/02 02:57:29;;;;;;;12.93;3.55;;;;;;;;;;5030616;28;20774;-42
2021/08/02 02:59:56;;;;;;;10.23;3.03;;;;;;;;;;5030878;28;20049;-45
2021/08/02 03:02:23;;;;;;;20.55;3.75;;;;;;;;;;5031005;28;20091;-41
2021/08/02 03:04:54;;;;;;;14.82;3.05;;;;;;;;;;5031054;28;20018;-41
2021/08/02 03:07:22;;;;;;;18.67;3.65;;;;;;;;;;5031213;28;20031;-41
2021/08/02 03:09:50;;;;;;;15.95;3.65;;;;;;;;;;5030704;28;20067;-42
2021/08/02 03:12:17;;;;;;;17.05;3.10;;;;;;;;;;5030668;28;20079;-42
2021/08/02 03:14:44;;;;;;;14.07;3.10;;;;;;;;;;5030156;28;20370;-42
2021/08/02 03:17:11;;;;;;;11.27;2.75;;;;;;;;;;5031005;28;20018;-42
2021/08/02 03:19:39;;;;;;;16.33;2.92;;;;;;;;;;5030832;28;20029;-43
2021/08/02 03:22:32;;;;;;;15.65;2.85;;;;;;;;;;5030943;28;20018;-42
2021/08/02 03:25:05;;;;;;;23.10;3.60;;;;;;;;;;5029788;28;20041;-42
2021/08/02 03:27:36;;;;;;;13.15;3.15;;;;;;;;;;5031423;28;20037;-42
2021/08/02 03:30:05;;;;;;;14.52;3.58;;;;;;;;;;5031101;28;20068;-42
2021/08/02 03:32:34;;;;;;;13.75;3.03;;;;;;;;;;5031541;28;20022;-42
2021/08/02 03:35:03;;;;;;;11.35;3.47;;;;;;;;;;5013195;28;20026;-42
2021/08/02 03:37:30;;;;;;;14.55;3.33;;;;;;;;;;5031360;28;20043;-42
2021/08/02 03:39:57;;;;;;;21.48;3.72;;;;;;;;;;5030992;28;20036;-42
2021/08/02 03:42:25;;;;;;;15.52;3.33;;;;;;;;;;5031183;28;20036;-42
2021/08/02 03:44:53;;;;;;;12.68;3.03;;;;;;;;;;5030782;28;20037;-42
2021/08/02 03:47:20;;;;;;;14.82;3.53;;;;;;;;;;5031404;28;20021;-42
2021/08/02 03:49:47;;;;;;;14.88;3.08;;;;;;;;;;5031050;28;20021;-42
2021/08/02 03:52:15;;;;;;;11.57;2.97;;;;;;;;;;5030974;28;20009;-42
2021/08/02 03:54:42;;;;;;;12.60;3.97;;;;;;;;;;5031242;28;20049;-42
2021/08/02 03:57:09;;;;;;;13.23;3.35;;;;;;;;;;5030708;28;20108;-42
2021/08/02 03:59:37;;;;;;;14.82;3.35;;;;;;;;;;5031294;28;20017;-42
2021/08/02 04:02:05;;;;;;;11.93;2.95;;;;;;;;;;5030783;28;20104;-42
2021/08/02 04:04:32;;;;;;;9.98;3.10;;;;;;;;;;5031215;28;20108;-42
2021/08/02 04:06:59;;;;;;;14.90;3.30;;;;;;;;;;5030662;28;20025;-42
2021/08/02 04:09:26;;;;;;;11.73;3.13;;;;;;;;;;5031068;28;20489;-41
2021/08/02 04:11:53;;;;;;;13.50;3.65;;;;;;;;;;5030579;28;20116;-42
2021/08/02 04:14:20;;;;;;;7.68;2.88;;;;;;;;;;5030679;28;20172;-42
2021/08/02 04:16:47;;;;;;;10.43;3.08;;;;;;;;;;5030814;28;20026;-42
2021/08/02 04:19:14;;;;;;;16.98;4.45;;;;;;;;;;5030938;28;20109;-41
2021/08/02 04:21:41;;;;;;;8.95;3.10;;;;;;;;;;5030236;28;20021;-41
2021/08/02 04:24:08;;;;;;;11.32;3.50;;;;;;;;;;5031181;28;20483;-43
2021/08/02 04:26:35;;;;;;;9.35;2.90;;;;;;;;;;5030394;28;20367;-42
2021/08/02 04:29:02;;;;;;;9.52;3.15;;;;;;;;;;5030942;28;20105;-42
2021/08/02 04:31:30;;;;;;;7.57;3.15;;;;;;;;;;5030430;28;20054;-42
2021/08/02 04:33:58;;;;;;;12.43;3.60;;;;;;;;;;5032896;28;20037;-42
2021/08/02 04:36:25;;;;;;;9.30;3.15;;;;;;;;;;5034376;28;20018;-43
2021/08/02 04:38:52;;;;;;;9.35;3.03;;;;;;;;;;5016229;28;20071;-44
2021/08/02 04:41:19;;;;;;;11.27;3.97;;;;;;;;;;5034277;28;20061;-42
2021/08/02 04:43:46;;;;;;;12.70;3.60;;;;;;;;;;5033693;28;20029;-41
2021/08/02 04:46:13;;;;;;;13.77;3.30;;;;;;;;;;5034296;28;20461;-41
2021/08/02 04:48:41;;;;;;;8.13;3.08;;;;;;;;;;5033975;28;20036;-42
2021/08/02 04:51:09;;;;;;;10.02;3.92;;;;;;;;;;5034047;28;20040;-42
2021/08/02 04:53:36;;;;;;;13.75;3.10;;;;;;;;;;5033322;28;20485;-43
2021/08/02 04:56:03;;;;;;;13.63;3.60;;;;;;;;;;5034367;28;20477;-42
2021/08/02 04:58:31;;;;;;;9.45;3.28;;;;;;;;;;5033580;28;20527;-44
2021/08/02 05:00:58;;;;;;;9.98;3.65;;;;;;;;;;5033850;28;20564;-42
2021/08/02 05:03:25;;;;;;;10.20;3.45;;;;;;;;;;5033321;28;20424;-43
2021/08/02 05:05:55;;;;;;;10.02;3.25;;;;;;;;;;5033746;28;20009;-42
2021/08/02 05:08:22;;;;;;;11.27;3.70;;;;;;;;;;5033220;28;20029;-41
2021/08/02 05:10:50;;;;;;;7.68;3.28;;;;;;;;;;5032706;28;20481;-42
2021/08/02 05:13:17;;;;;;;7.75;3.38;;;;;;;;;;5032654;28;20068;-44
2021/08/02 05:15:44;;;;;;;7.18;3.65;;;;;;;;;;5033298;28;20053;-42
2021/08/02 05:18:11;;;;;;;9.63;3.58;;;;;;;;;;5033614;28;20033;-42
2021/08/02 05:20:38;;;;;;;10.68;3.83;;;;;;;;;;5033012;28;20067;-42
2021/08/02 05:23:05;;;;;;;7.85;3.60;;;;;;;;;;5015487;28;20113;-43
2021/08/02 05:25:32;;;;;;;6.95;3.17;;;;;;;;;;5033049;28;20029;-42
2021/08/02 05:27:59;;;;;;;9.10;3.70;;;;;;;;;;5033506;28;20374;-45
2021/08/02 05:30:26;;;;;;;11.25;3.63;;;;;;;;;;5033005;28;20033;-44
2021/08/02 05:32:53;;;;;;;9.60;3.97;;;;;;;;;;5033216;28;20025;-45
2021/08/02 05:35:20;;;;;;;6.85;3.60;;;;;;;;;;5032926;28;20420;-42
2021/08/02 05:37:48;;;;;;;10.82;3.17;;;;;;;;;;5033264;28;20481;-42
2021/08/02 05:40:15;;;;;;;8.45;3.63;;;;;;;;;;5032743;28;20025;-42
2021/08/02 05:42:42;;;;;;;11.07;3.38;;;;;;;;;;5033083;28;20025;-41
2021/08/02 05:45:09;;;;;;;7.60;3.60;;;;;;;;;;5032652;28;20481;-40
2021/08/02 05:47:36;;;;;;;9.48;3.92;;;;;;;;;;5033154;28;20036;-42
2021/08/02 05:50:04;;;;;;;10.13;3.15;;;;;;;;;;5032555;28;20026;-42
2021/08/02 05:52:31;;;;;;;10.77;3.28;;;;;;;;;;5033059;28;20105;-41
2021/08/02 05:54:58;;;;;;;10.45;3.47;;;;;;;;;;5032776;28;20037;-42
2021/08/02 05:57:25;;;;;;;8.82;3.10;;;;;;;;;;5032616;28;20025;-41
2021/08/02 05:59:53;;;;;;;9.80;3.47;;;;;;;;;;5032615;28;20136;-41
2021/08/02 06:02:20;;;;;;;7.78;3.20;;;;;;;;;;5032388;28;20026;-41
2021/08/02 06:04:47;;;;;;;5.57;2.90;;;;;;;;;;5032459;28;20022;-41
2021/08/02 06:07:14;;;;;;;7.43;3.03;;;;;;;;;;5014333;28;20373;-43
2021/08/02 06:09:41;;;;;;;5.93;3.33;;;;;;;;;;5032637;28;20447;-45
2021/08/02 06:12:09;;;;;;;8.80;3.25;;;;;;;;;;5032259;28;20025;-46
2021/08/02 06:14:36;;;;;;;8.02;3.00;;;;;;;;;;5031835;28;20405;-41
2021/08/02 06:17:03;;;;;;;6.85;2.60;;;;;;;;;;5014702;28;20029;-45
2021/08/02 06:19:31;;;;;;;7.22;2.70;;;;;;;;;;5032326;28;20064;-43
2021/08/02 06:21:58;;;;;;;7.53;2.85;;;;;;;;;;5031937;28;20545;-44
2021/08/02 06:24:25;;;;;;;7.80;2.90;;;;;;;;;;5032264;28;20025;-42
2021/08/02 06:26:52;;;;;;;7.47;3.00;;;;;;;;;;5031982;28;20018;-42
2021/08/02 06:29:18;;;;;;;12.98;3.03;;;;;;;;;;5032026;28;20023;-42
2021/08/02 06:31:46;;;;;;;7.43;2.70;;;;;;;;;;5031615;28;20485;-42
2021/08/02 06:34:13;;;;;;;7.20;2.92;;;;;;;;;;5032022;28;20038;-43
2021/08/02 06:36:39;;;;;;;10.25;3.10;;;;;;;;;;5031980;28;20022;-41
2021/08/02 06:39:06;;;;;;;8.13;2.88;;;;;;;;;;5013711;28;20379;-40
2021/08/02 06:41:33;;;;;;;5.70;2.45;;;;;;;;;;5032019;28;20096;-42
2021/08/02 06:44:00;;;;;;;7.07;2.78;;;;;;;;;;5031340;28;20469;-41
2021/08/02 06:46:27;;;;;;;5.00;2.60;;;;;;;;;;5032062;28;20022;-42
2021/08/02 06:48:54;;;;;;;5.47;2.45;;;;;;;;;;5031537;28;20099;-41
2021/08/02 06:51:22;;;;;;;4.72;2.60;;;;;;;;;;5031809;28;20528;-42
2021/08/02 06:53:49;;;;;;;6.35;2.60;;;;;;;;;;5031131;28;20037;-41
2021/08/02 06:56:16;;;;;;;9.07;2.55;;;;;;;;;;5031464;28;20021;-42
2021/08/02 06:58:43;;;;;;;10.32;2.78;;;;;;;;;;5031399;28;20060;-42
2021/08/02 07:01:10;;;;;;;4.05;2.05;;;;;;;;;;5031822;28;20574;-41
2021/08/02 07:03:37;;;;;;;6.50;2.50;;;;;;;;;;5031150;28;20014;-41
2021/08/02 07:06:04;;;;;;;6.05;2.45;;;;;;;;;;5013916;28;20030;-42
2021/08/02 07:08:31;;;;;;;6.57;2.92;;;;;;;;;;5031159;28;20009;-41
2021/08/02 07:10:58;;;;;;;5.22;2.20;;;;;;;;;;5031881;28;20520;-41
2021/08/02 07:13:25;;;;;;;5.15;2.70;;;;;;;;;;5031221;28;20099;-41
2021/08/02 07:15:52;;;;;;;3.92;2.15;;;;;;;;;;5030873;28;20041;-42
2021/08/02 07:18:21;;;;;;;5.65;2.72;;;;;;;;;;5031638;28;20147;-42
2021/08/02 07:20:51;;;;;;;6.32;2.47;;;;;;;;;;5031126;28;20111;-42
2021/08/02 07:23:18;;;;;;;5.43;2.38;;;;;;;;;;5031457;28;20392;-42
2021/08/02 07:25:45;;;;;;;4.47;2.58;;;;;;;;;;5031014;28;20021;-43
2021/08/02 07:28:12;;;;;;;4.15;2.30;;;;;;;;;;5031491;28;20033;-45
2021/08/02 07:30:39;;;;;;;5.38;2.28;;;;;;;;;;5013255;28;20018;-44
2021/08/02 07:33:06;;;;;;;5.38;2.35;;;;;;;;;;5031350;28;20082;-45
2021/08/02 07:35:33;;;;;;;5.13;2.20;;;;;;;;;;5031024;28;20124;-45
2021/08/02 07:38:00;;;;;;;7.25;2.70;;;;;;;;;;5031224;28;20421;-46
2021/08/02 07:40:28;;;;;;;5.75;2.40;;;;;;;;;;5031019;28;20032;-45
2021/08/02 07:42:55;;;;;;;5.63;2.30;;;;;;;;;;5031550;28;20489;-43
2021/08/02 07:45:22;;;;;;;6.15;2.50;;;;;;;;;;5030644;28;20136;-42
2021/08/02 07:47:49;;;;;;;5.88;2.50;;;;;;;;;;5031317;28;20032;-43
2021/08/02 07:50:16;;;;;;;3.65;2.13;;;;;;;;;;5013229;28;20116;-41
2021/08/02 07:52:48;;;;;;;5.07;2.42;;;;;;;;;;5024542;28;20022;-43
2021/08/02 07:55:21;;;;;;;4.05;2.10;;;;;;;;;;5018192;28;20124;-41
2021/08/02 08:00:21;;;;;;;7.18;3.00;;;;;;;;;;5024330;28;20076;-46
2021/08/02 08:02:48;;;;;;;5.20;2.33;;;;;;;;;;5029875;28;20034;-48
2021/08/02 08:05:16;;;;;;;7.53;3.28;;;;;;;;;;5031572;28;20044;-43
2021/08/02 08:07:47;;;;;;;6.97;2.25;;;;;;;;;;5031323;28;20064;-45
2021/08/02 08:10:19;;;;;;;3.88;2.30;;;;;;;;;;5035653;28;20033;-43
2021/08/02 08:12:46;;;;;;;7.00;2.40;;;;;;;;;;5035091;28;20045;-44
2021/08/02 08:15:13;;;;;;;7.50;2.47;;;;;;;;;;5035248;28;20033;-43
2021/08/02 08:17:41;;;;;;;4.55;2.40;;;;;;;;;;5034764;28;20029;-44
2021/08/02 08:20:09;;;;;;;3.33;2.00;;;;;;;;;;5034759;28;20030;-42
2021/08/02 08:22:37;;;;;;;6.55;2.22;;;;;;;;;;5034495;28;20075;-41
2021/08/02 08:25:04;;;;;;;3.80;2.10;;;;;;;;;;5035162;28;20032;-42
2021/08/02 08:27:32;;;;;;;5.03;2.40;;;;;;;;;;5034960;28;20115;-43
2021/08/02 08:29:59;;;;;;;3.92;2.10;;;;;;;;;;5034447;28;20033;-43
2021/08/02 08:32:26;;;;;;;5.15;2.17;;;;;;;;;;5034816;28;20028;-43
2021/08/02 08:34:53;;;;;;;6.72;2.55;;;;;;;;;;5034516;28;20034;-42
2021/08/02 08:37:20;;;;;;;4.43;2.00;;;;;;;;;;5034697;28;20033;-43
2021/08/02 08:39:47;;;;;;;3.13;2.10;;;;;;;;;;5034358;28;20029;-41
2021/08/02 08:42:15;;;;;;;6.82;2.50;;;;;;;;;;5034513;28;20061;-41
2021/08/02 08:44:43;;;;;;;4.22;2.47;;;;;;;;;;5034348;28;20112;-43
2021/08/02 08:47:11;;;;;;;5.32;2.35;;;;;;;;;;5034377;28;20031;-42
2021/08/02 08:49:39;;;;;;;7.68;2.50;;;;;;;;;;5034418;28;20087;-42
2021/08/02 08:52:06;;;;;;;5.55;2.38;;;;;;;;;;5038966;28;20036;-42
2021/08/02 08:54:34;;;;;;;5.90;2.60;;;;;;;;;;5054034;28;20445;-41
2021/08/02 08:57:01;;;;;;;4.97;2.30;;;;;;;;;;5054491;28;20092;-43
2021/08/02 08:59:28;;;;;;;4.18;2.65;;;;;;;;;;5053756;28;20518;-41
2021/08/02 09:02:02;;;;;;;5.32;2.28;;;;;;;;;;5054077;28;20021;-43
2021/08/02 09:04:30;;;;;;;4.70;2.35;;;;;;;;;;5036325;28;20504;-43
2021/08/02 09:07:01;;;;;;;5.65;2.05;;;;;;;;;;5053669;28;20028;-42
2021/08/02 09:09:31;;;;;;;4.07;2.28;;;;;;;;;;5054213;28;20504;-42
2021/08/02 09:12:06;;;;;;;4.50;2.38;;;;;;;;;;5053687;28;20028;-41
2021/08/02 09:14:33;;;;;;;6.35;2.22;;;;;;;;;;5053653;28;20052;-42
2021/08/02 09:17:00;;;;;;;5.28;2.42;;;;;;;;;;5053733;28;20025;-42
2021/08/02 09:19:41;;;;;;;4.72;2.60;;;;;;;;;;5053543;28;20036;-47
2021/08/02 09:22:08;;;;;;;5.28;2.28;;;;;;;;;;5053298;28;20165;-43
2021/08/02 09:24:36;;;;;;;4.32;2.17;;;;;;;;;;5054155;28;20025;-48
2021/08/02 09:27:03;;;;;;;5.40;2.25;;;;;;;;;;5053286;28;20028;-43
2021/08/02 09:29:31;;;;;;;4.75;2.33;;;;;;;;;;5053865;28;20021;-46
2021/08/02 09:31:59;;;;;;;5.65;2.60;;;;;;;;;;5053174;28;20060;-43
2021/08/02 09:34:27;;;;;;;4.47;2.40;;;;;;;;;;5053919;28;20032;-42
2021/08/02 09:37:03;;;;;;;4.95;2.33;;;;;;;;;;5053144;28;20055;-46
2021/08/02 09:39:31;;;;;;;4.03;2.33;;;;;;;;;;5053463;28;20044;-47
2021/08/02 09:42:06;;;;;;;4.07;2.30;;;;;;;;;;5035602;28;20021;-45
2021/08/02 09:44:33;;;;;;;4.93;2.40;;;;;;;;;;5053233;28;20047;-46
2021/08/02 09:47:01;;;;;;;4.60;2.03;;;;;;;;;;5053429;28;20098;-42
2021/08/02 09:49:32;;;;;;;4.80;2.20;;;;;;;;;;5053069;28;20396;-41
2021/08/02 09:51:59;;;;;;;3.60;2.10;;;;;;;;;;5053639;28;20024;-42
2021/08/02 09:54:28;;;;;;;5.18;2.20;;;;;;;;;;5052765;28;20043;-45
2021/08/02 09:56:55;;;;;;;4.93;2.30;;;;;;;;;;5035242;28;20040;-44
2021/08/02 09:59:23;;;;;;;4.72;2.33;;;;;;;;;;5052462;28;20539;-45
2021/08/02 10:01:51;;;;;;;6.35;2.08;;;;;;;;;;5053578;28;20449;-44
2021/08/02 10:04:18;;;;;;;5.68;2.15;;;;;;;;;;5052770;28;20021;-48
2021/08/02 10:06:45;;;;;;;6.53;2.45;;;;;;;;;;5053217;28;20025;-46
2021/08/02 10:09:13;;;;;;;3.88;2.08;;;;;;;;;;5052376;28;20427;-44
2021/08/02 10:11:40;;;;;;;4.10;2.40;;;;;;;;;;5053084;28;20040;-45
2021/08/02 10:14:08;;;;;;;4.15;2.10;;;;;;;;;;5052676;28;20067;-43
2021/08/02 10:16:36;;;;;;;3.42;1.90;;;;;;;;;;5052878;28;20017;-45
2021/08/02 10:19:04;;;;;;;4.68;2.40;;;;;;;;;;5052614;28;20025;-45
2021/08/02 10:21:45;;;;;;;3.38;2.10;;;;;;;;;;5034357;28;20032;-44
2021/08/02 10:24:13;;;;;;;5.05;2.10;;;;;;;;;;5052540;28;20053;-44
2021/08/02 10:26:40;;;;;;;2.75;1.95;;;;;;;;;;5052293;28;20092;-45
2021/08/02 10:29:08;;;;;;;3.38;2.15;;;;;;;;;;5052222;28;20048;-43
2021/08/02 10:31:50;;;;;;;3.42;1.90;;;;;;;;;;5033626;28;20021;-44
2021/08/02 10:34:19;;;;;;;3.83;2.13;;;;;;;;;;5052314;28;20124;-42
2021/08/02 10:36:59;;;;;;;5.45;2.50;;;;;;;;;;5052023;28;20420;-42
2021/08/02 10:39:28;;;;;;;4.35;1.95;;;;;;;;;;5052186;28;20063;-44
2021/08/02 10:42:12;;;;;;;4.57;2.03;;;;;;;;;;5039820;28;20047;-43
2021/08/02 10:44:39;;;;;;;3.53;1.98;;;;;;;;;;5041600;28;20025;-44
2021/08/02 10:47:11;;;;;;;4.60;2.03;;;;;;;;;;5040591;28;20017;-44
2021/08/02 10:49:49;;;;;;;6.20;1.77;;;;;;;;;;5041518;28;20104;-46
2021/08/02 10:52:26;;;;;;;4.90;1.95;;;;;;;;;;5036965;28;20018;-45
2021/08/02 10:54:53;;;;;;;5.78;1.98;;;;;;;;;;5032152;28;20038;-44
2021/08/02 10:57:20;;;;;;;7.43;1.98;;;;;;;;;;5031126;28;20100;-48
2021/08/02 10:59:47;;;;;;;5.32;2.15;;;;;;;;;;5031058;28;20055;-44
2021/08/02 11:02:14;;;;;;;5.32;2.15;;;;;;;;;;5031167;28;20030;-43
2021/08/02 11:04:42;;;;;;;4.22;2.08;;;;;;;;;;5032333;28;20034;-44
2021/08/02 11:07:09;;;;;;;3.78;2.00;;;;;;;;;;5032279;28;20048;-43
2021/08/02 11:09:37;;;;;;;2.70;1.80;;;;;;;;;;5031746;28;20381;-44
2021/08/02 11:12:04;;;;;;;5.85;2.33;;;;;;;;;;5031865;28;20083;-44
2021/08/02 11:14:31;;;;;;;5.72;2.75;;;;;;;;;;5031618;28;20113;-45
2021/08/02 11:16:58;;;;;;;5.78;2.10;;;;;;;;;;5032180;28;20021;-45
2021/08/02 11:19:28;;;;;;;4.30;2.20;;;;;;;;;;5031216;28;20031;-45
2021/08/02 11:22:06;;;;;;;4.45;2.20;;;;;;;;;;5032259;28;20059;-49
2021/08/02 11:24:34;;;;;;;3.95;2.20;;;;;;;;;;5031586;28;20087;-47
2021/08/02 11:27:03;;;;;;;3.78;2.00;;;;;;;;;;5031968;28;20025;-46
2021/08/02 11:29:34;;;;;;;7.20;2.10;;;;;;;;;;5013538;28;20076;-45
2021/08/02 11:32:03;;;;;;;6.97;2.20;;;;;;;;;;5032022;28;20052;-46
2021/08/02 11:34:31;;;;;;;4.75;2.40;;;;;;;;;;5031256;28;20117;-47
2021/08/02 11:36:58;;;;;;;3.95;2.15;;;;;;;;;;5031926;28;20049;-48
2021/08/02 11:39:25;;;;;;;5.25;2.67;;;;;;;;;;5031103;28;20112;-45
2021/08/02 11:42:06;;;;;;;4.50;2.30;;;;;;;;;;5032332;28;20376;-46
2021/08/02 11:44:34;;;;;;;5.13;2.60;;;;;;;;;;5035672;28;20087;-45
2021/08/02 11:47:02;;;;;;;4.05;1.92;;;;;;;;;;5036134;28;20443;-47
2021/08/02 11:49:29;;;;;;;5.22;1.95;;;;;;;;;;5035797;28;20022;-42
2021/08/02 11:51:57;;;;;;;4.72;2.03;;;;;;;;;;5035338;28;20096;-46
2021/08/02 11:54:25;;;;;;;4.10;2.10;;;;;;;;;;5035794;28;20476;-45
2021/08/02 11:56:53;;;;;;;3.58;2.15;;;;;;;;;;5035214;28;20026;-47
2021/08/02 11:59:23;;;;;;;3.40;2.17;;;;;;;;;;5035210;28;20401;-43
2021/08/02 12:01:51;;;;;;;4.53;2.00;;;;;;;;;;5035205;28;20021;-42
2021/08/02 12:04:19;;;;;;;6.28;2.20;;;;;;;;;;5017638;28;20059;-44
2021/08/02 12:06:52;;;;;;;3.22;1.95;;;;;;;;;;5034570;28;20099;-42
2021/08/02 12:09:38;;;;;;;5.70;2.55;;;;;;;;;;5034880;28;20473;-43
2021/08/02 12:12:06;;;;;;;6.07;2.45;;;;;;;;;;5047729;28;20075;-45
2021/08/02 12:14:34;;;;;;;4.40;2.40;;;;;;;;;;5044767;28;20631;-43
2021/08/02 12:17:02;;;;;;;4.25;2.00;;;;;;;;;;5033799;28;20032;-44
2021/08/02 12:19:29;;;;;;;5.72;2.10;;;;;;;;;;5033329;28;20029;-44
2021/08/02 12:21:57;;;;;;;5.13;2.20;;;;;;;;;;5034335;28;20075;-43
2021/08/02 12:24:24;;;;;;;7.45;2.47;;;;;;;;;;5034869;28;20034;-43
2021/08/02 12:26:52;;;;;;;7.63;2.60;;;;;;;;;;5034371;28;20018;-44
2021/08/02 12:29:27;;;;;;;6.18;2.13;;;;;;;;;;5032882;28;20056;-43
2021/08/02 12:31:55;;;;;;;6.55;2.70;;;;;;;;;;5034367;28;20029;-43
2021/08/02 12:34:22;;;;;;;6.40;2.28;;;;;;;;;;5033702;28;20120;-43
2021/08/02 12:36:49;;;;;;;2.50;1.85;;;;;;;;;;5046446;28;20025;-44
2021/08/02 12:39:16;;;;;;;9.25;2.35;;;;;;;;;;5052585;28;20112;-42
2021/08/02 12:41:43;;;;;;;4.03;2.05;;;;;;;;;;5048126;28;20021;-44
2021/08/02 12:44:10;;;;;;;7.25;2.50;;;;;;;;;;5052885;28;20049;-43
2021/08/02 12:46:37;;;;;;;7.05;2.05;;;;;;;;;;5035309;28;20064;-42
2021/08/02 12:49:04;;;;;;;4.85;2.20;;;;;;;;;;5032681;28;20056;-40
2021/08/02 12:51:31;;;;;;;3.50;2.00;;;;;;;;;;5043135;28;20033;-42
2021/08/02 12:53:58;;;;;;;6.20;2.17;;;;;;;;;;5052324;28;20064;-42
2021/08/02 12:56:25;;;;;;;8.88;2.42;;;;;;;;;;5047148;28;20022;-41
2021/08/02 12:58:52;;;;;;;9.23;2.60;;;;;;;;;;5020368;28;20487;-41
2021/08/02 13:01:19;;;;;;;7.97;2.58;;;;;;;;;;5032930;28;20033;-41
2021/08/02 13:03:46;;;;;;;5.30;2.35;;;;;;;;;;5029778;28;20030;-40
2021/08/02 13:06:15;;;;;;;10.80;2.30;;;;;;;;;;5017286;28;20034;-42
2021/08/02 13:08:43;;;;;;;9.02;2.00;;;;;;;;;;5029712;28;20048;-42
2021/08/02 13:11:11;;;;;;;9.48;2.08;;;;;;;;;;5029652;28;20104;-42
2021/08/02 13:13:38;;;;;;;7.40;2.20;;;;;;;;;;5024368;28;20034;-42
2021/08/02 13:16:05;;;;;;;6.53;2.05;;;;;;;;;;5029932;28;20021;-42
2021/08/02 13:18:32;;;;;;;6.65;2.05;;;;;;;;;;5021222;28;20120;-41
2021/08/02 13:20:59;;;;;;;7.50;2.20;;;;;;;;;;5029472;28;20072;-42
2021/08/02 13:28:38;;;;;;;7.05;2.42;;;;;;;;;;5016979;28;20103;-41
2021/08/02 13:31:05;;;;;;;5.20;2.13;;;;;;;;;;5024913;28;20491;-43
2021/08/02 13:33:32;;;;;;;8.98;2.15;;;;;;;;;;5029428;28;20034;-42
2021/08/02 13:35:59;;;;;;;6.00;2.38;;;;;;;;;;5030228;28;20041;-42
2021/08/02 13:38:26;;;;;;;8.25;1.95;;;;;;;;;;5029062;28;20079;-42
2021/08/02 13:40:53;;;;;;;5.25;2.30;;;;;;;;;;5028455;28;20041;-43
2021/08/02 13:43:20;;;;;;;4.72;2.10;;;;;;;;;;5023951;28;20097;-42
2021/08/02 13:45:47;;;;;;;8.50;1.98;;;;;;;;;;5021764;28;20041;-43
2021/08/02 13:48:14;;;;;;;10.68;2.15;;;;;;;;;;5029604;28;20083;-45
2021/08/02 13:50:42;;;;;;;8.57;2.28;;;;;;;;;;5022184;28;20026;-42
2021/08/02 13:53:09;;;;;;;7.88;2.40;;;;;;;;;;5024671;28;20037;-43
2021/08/02 13:55:36;;;;;;;8.07;2.20;;;;;;;;;;5028416;28;20041;-42
2021/08/02 13:58:04;;;;;;;8.43;2.28;;;;;;;;;;5030486;28;20029;-42
2021/08/02 14:00:31;;;;;;;6.78;2.13;;;;;;;;;;5040797;28;20467;-42
2021/08/02 14:02:58;;;;;;;6.68;2.00;;;;;;;;;;5049686;28;20373;-41
2021/08/02 14:05:25;;;;;;;9.15;2.13;;;;;;;;;;5037631;28;20370;-43
2021/08/02 14:07:52;;;;;;;5.22;2.17;;;;;;;;;;5046688;28;20025;-41
2021/08/02 14:10:19;;;;;;;9.90;2.30;;;;;;;;;;5046959;28;20087;-42
2021/08/02 14:12:48;;;;;;;11.25;2.80;;;;;;;;;;5046321;28;20017;-41
2021/08/02 14:15:15;;;;;;;23.48;3.40;;;;;;;;;;5044164;28;20037;-42
2021/08/02 14:17:52;;;;;;;11.98;2.60;;;;;;;;;;5040982;28;20056;-41
2021/08/02 14:20:21;;;;;;;16.95;3.33;;;;;;;;;;5039562;28;20029;-41
2021/08/02 14:22:48;;;;;;;22.52;3.50;;;;;;;;;;5046837;28;20017;-42
2021/08/02 14:25:15;;;;;;;15.27;2.50;;;;;;;;;;5047352;28;20039;-40
2021/08/02 14:27:42;;;;;;;14.70;2.38;;;;;;;;;;5042527;28;20037;-39
2021/08/02 14:30:10;;;;;;;14.98;3.10;;;;;;;;;;5039729;28;20096;-43
2021/08/02 14:32:37;;;;;;;17.08;2.75;;;;;;;;;;5043517;28;20029;-40
2021/08/02 14:35:05;;;;;;;8.15;2.47;;;;;;;;;;5031061;28;20074;-40
2021/08/02 14:37:34;;;;;;;15.50;3.03;;;;;;;;;;5045915;28;20021;-39
2021/08/02 14:40:03;;;;;;;12.07;2.40;;;;;;;;;;5040646;28;20067;-43
2021/08/02 14:42:32;;;;;;;13.18;2.97;;;;;;;;;;5039604;28;20037;-40
2021/08/02 14:45:01;;;;;;;9.43;2.70;;;;;;;;;;5047834;28;20028;-42
2021/08/02 14:47:32;;;;;;;11.98;2.67;;;;;;;;;;5041199;28;20028;-40
2021/08/02 14:50:10;;;;;;;18.30;2.50;;;;;;;;;;5038580;28;20060;-42
2021/08/02 14:52:38;;;;;;;21.75;3.97;;;;;;;;;;5035656;28;20025;-42
2021/08/02 14:55:07;;;;;;;13.85;2.72;;;;;;;;;;5046205;28;20124;-42
2021/08/02 14:57:35;;;;;;;17.15;2.72;;;;;;;;;;5045732;28;20021;-42